sensor_id;sensor_type;location;lat;lon;timestamp;pressure;altitude;pressure_sealevel;temperature;humidity
59873;BME280;50750;51.636;4.948;2023-03-26T00:01:18;100855.89;;;14.25;62.72
59873;BME280;50750;51.636;4.948;2023-03-26T00:03:46;100855.38;;;14.24;62.84
59873;BME280;50750;51.636;4.948;2023-03-26T00:06:21;100852.11;;;14.23;62.80
59873;BME280;50750;51.636;4.948;2023-03-26T00:08:51;100852.66;;;14.22;62.74
59873;BME280;50750;51.636;4.948;2023-03-26T00:11:19;100853.93;;;14.21;62.79
59873;BME280;50750;51.636;4.948;2023-03-26T00:13:47;100852.56;;;14.21;63.02
59873;BME280;50750;51.636;4.948;2023-03-26T00:16:17;100849.92;;;14.20;62.88
59873;BME280;50750;51.636;4.948;2023-03-26T00:18:45;100846.73;;;14.21;62.86
59873;BME280;50750;51.636;4.948;2023-03-26T00:21:14;100850.23;;;14.21;62.89
59873;BME280;50750;51.636;4.948;2023-03-26T00:23:42;100841.77;;;14.22;62.85
59873;BME280;50750;51.636;4.948;2023-03-26T00:26:09;100841.57;;;14.22;62.77
59873;BME280;50750;51.636;4.948;2023-03-26T00:28:37;100843.45;;;14.23;62.87
59873;BME280;50750;51.636;4.948;2023-03-26T00:31:08;100844.17;;;14.23;62.73
59873;BME280;50750;51.636;4.948;2023-03-26T00:33:38;100837.12;;;14.23;62.83
59873;BME280;50750;51.636;4.948;2023-03-26T00:36:08;100833.10;;;14.22;62.79
59873;BME280;50750;51.636;4.948;2023-03-26T00:38:36;100833.97;;;14.23;62.88
59873;BME280;50750;51.636;4.948;2023-03-26T00:41:06;100831.33;;;14.23;63.02
59873;BME280;50750;51.636;4.948;2023-03-26T00:43:34;100829.25;;;14.22;62.77
59873;BME280;50750;51.636;4.948;2023-03-26T00:46:01;100827.68;;;14.22;62.85
59873;BME280;50750;51.636;4.948;2023-03-26T00:48:28;100826.48;;;14.21;62.70
59873;BME280;50750;51.636;4.948;2023-03-26T00:50:56;100824.88;;;14.21;62.81
59873;BME280;50750;51.636;4.948;2023-03-26T00:53:23;100824.01;;;14.21;62.96
59873;BME280;50750;51.636;4.948;2023-03-26T00:55:49;100823.68;;;14.21;62.68
59873;BME280;50750;51.636;4.948;2023-03-26T00:58:16;100820.01;;;14.20;62.78
59873;BME280;50750;51.636;4.948;2023-03-26T01:00:49;100814.05;;;14.20;62.81
59873;BME280;50750;51.636;4.948;2023-03-26T01:03:17;100806.15;;;14.19;62.96
59873;BME280;50750;51.636;4.948;2023-03-26T01:05:52;100801.07;;;14.18;62.66
59873;BME280;50750;51.636;4.948;2023-03-26T01:08:41;100795.77;;;14.19;62.78
59873;BME280;50750;51.636;4.948;2023-03-26T01:11:22;100791.50;;;14.20;62.85
59873;BME280;50750;51.636;4.948;2023-03-26T01:14:00;100790.76;;;14.20;62.94
59873;BME280;50750;51.636;4.948;2023-03-26T01:16:42;100785.81;;;14.20;62.98
59873;BME280;50750;51.636;4.948;2023-03-26T01:19:18;100785.09;;;14.21;62.80
59873;BME280;50750;51.636;4.948;2023-03-26T01:21:48;100785.26;;;14.21;62.75
59873;BME280;50750;51.636;4.948;2023-03-26T01:24:14;100781.55;;;14.21;62.85
59873;BME280;50750;51.636;4.948;2023-03-26T01:29:39;100764.63;;;14.22;62.81
59873;BME280;50750;51.636;4.948;2023-03-26T01:38:05;100751.11;;;14.21;62.71
59873;BME280;50750;51.636;4.948;2023-03-26T01:40:47;100747.77;;;14.21;62.94
59873;BME280;50750;51.636;4.948;2023-03-26T01:46:08;100746.27;;;14.18;62.80
59873;BME280;50750;51.636;4.948;2023-03-26T01:48:37;100741.75;;;14.18;62.90
59873;BME280;50750;51.636;4.948;2023-03-26T01:51:06;100736.88;;;14.17;62.75
59873;BME280;50750;51.636;4.948;2023-03-26T01:53:36;100738.48;;;14.16;62.84
59873;BME280;50750;51.636;4.948;2023-03-26T02:01:26;100719.39;;;14.13;62.98
59873;BME280;50750;51.636;4.948;2023-03-26T02:04:18;100713.55;;;14.14;62.82
59873;BME280;50750;51.636;4.948;2023-03-26T02:09:28;100698.69;;;14.16;62.87
59873;BME280;50750;51.636;4.948;2023-03-26T02:11:58;100695.84;;;14.16;62.85
59873;BME280;50750;51.636;4.948;2023-03-26T02:14:24;100694.41;;;14.17;62.80
59873;BME280;50750;51.636;4.948;2023-03-26T02:16:53;100692.05;;;14.18;62.84
59873;BME280;50750;51.636;4.948;2023-03-26T02:19:21;100691.52;;;14.18;62.82
59873;BME280;50750;51.636;4.948;2023-03-26T02:21:49;100691.84;;;14.19;62.87
59873;BME280;50750;51.636;4.948;2023-03-26T02:24:17;100692.04;;;14.19;62.75
59873;BME280;50750;51.636;4.948;2023-03-26T02:26:44;100689.92;;;14.19;62.74
59873;BME280;50750;51.636;4.948;2023-03-26T02:29:13;100692.89;;;14.20;62.66
59873;BME280;50750;51.636;4.948;2023-03-26T02:31:45;100690.64;;;14.19;62.61
59873;BME280;50750;51.636;4.948;2023-03-26T02:34:15;100691.70;;;14.18;62.60
59873;BME280;50750;51.636;4.948;2023-03-26T02:36:41;100684.85;;;14.18;62.69
59873;BME280;50750;51.636;4.948;2023-03-26T02:39:09;100678.02;;;14.17;62.78
59873;BME280;50750;51.636;4.948;2023-03-26T02:41:39;100671.52;;;14.17;62.84
59873;BME280;50750;51.636;4.948;2023-03-26T02:44:06;100666.45;;;14.16;62.82
59873;BME280;50750;51.636;4.948;2023-03-26T02:46:32;100666.29;;;14.15;62.59
59873;BME280;50750;51.636;4.948;2023-03-26T02:48:59;100661.77;;;14.15;62.68
59873;BME280;50750;51.636;4.948;2023-03-26T02:51:26;100654.23;;;14.14;62.84
59873;BME280;50750;51.636;4.948;2023-03-26T02:53:52;100646.15;;;14.13;62.74
59873;BME280;50750;51.636;4.948;2023-03-26T02:56:20;100640.21;;;14.12;62.70
59873;BME280;50750;51.636;4.948;2023-03-26T02:58:46;100635.84;;;14.12;62.91
59873;BME280;50750;51.636;4.948;2023-03-26T03:01:13;100633.37;;;14.12;62.77
59873;BME280;50750;51.636;4.948;2023-03-26T03:03:43;100625.25;;;14.12;62.74
59873;BME280;50750;51.636;4.948;2023-03-26T03:06:10;100623.31;;;14.12;62.84
59873;BME280;50750;51.636;4.948;2023-03-26T03:08:36;100618.39;;;14.12;62.79
59873;BME280;50750;51.636;4.948;2023-03-26T03:11:17;100618.02;;;14.12;62.70
59873;BME280;50750;51.636;4.948;2023-03-26T03:13:47;100613.64;;;14.12;62.54
59873;BME280;50750;51.636;4.948;2023-03-26T03:16:14;100610.29;;;14.12;62.82
59873;BME280;50750;51.636;4.948;2023-03-26T03:18:40;100608.52;;;14.12;62.63
59873;BME280;50750;51.636;4.948;2023-03-26T03:21:07;100608.33;;;14.12;62.87
59873;BME280;50750;51.636;4.948;2023-03-26T03:23:33;100601.12;;;14.12;62.85
59873;BME280;50750;51.636;4.948;2023-03-26T03:26:00;100602.89;;;14.12;62.94
59873;BME280;50750;51.636;4.948;2023-03-26T03:28:27;100598.02;;;14.11;62.84
59873;BME280;50750;51.636;4.948;2023-03-26T03:30:54;100592.77;;;14.11;62.63
59873;BME280;50750;51.636;4.948;2023-03-26T03:33:23;100592.06;;;14.11;62.80
59873;BME280;50750;51.636;4.948;2023-03-26T03:35:49;100591.39;;;14.10;62.73
59873;BME280;50750;51.636;4.948;2023-03-26T03:38:16;100588.09;;;14.09;62.87
59873;BME280;50750;51.636;4.948;2023-03-26T03:40:44;100584.77;;;14.08;62.88
59873;BME280;50750;51.636;4.948;2023-03-26T03:43:11;100581.99;;;14.07;62.68
59873;BME280;50750;51.636;4.948;2023-03-26T03:45:37;100582.00;;;14.07;62.77
59873;BME280;50750;51.636;4.948;2023-03-26T03:48:04;100580.63;;;14.07;62.75
59873;BME280;50750;51.636;4.948;2023-03-26T03:50:31;100576.25;;;14.06;62.92
59873;BME280;50750;51.636;4.948;2023-03-26T03:52:57;100572.91;;;14.06;62.99
59873;BME280;50750;51.636;4.948;2023-03-26T03:55:24;100566.35;;;14.07;62.85
59873;BME280;50750;51.636;4.948;2023-03-26T03:57:53;100559.14;;;14.07;62.86
59873;BME280;50750;51.636;4.948;2023-03-26T04:00:19;100552.41;;;14.08;62.86
59873;BME280;50750;51.636;4.948;2023-03-26T04:02:47;100543.23;;;14.08;62.79
59873;BME280;50750;51.636;4.948;2023-03-26T04:05:14;100540.06;;;14.08;62.74
59873;BME280;50750;51.636;4.948;2023-03-26T04:07:41;100543.02;;;14.09;62.74
59873;BME280;50750;51.636;4.948;2023-03-26T04:10:08;100535.10;;;14.09;62.79
59873;BME280;50750;51.636;4.948;2023-03-26T04:12:35;100531.40;;;14.09;62.81
59873;BME280;50750;51.636;4.948;2023-03-26T04:15:02;100525.61;;;14.08;62.84
59873;BME280;50750;51.636;4.948;2023-03-26T04:17:29;100519.11;;;14.08;62.88
59873;BME280;50750;51.636;4.948;2023-03-26T04:19:56;100515.77;;;14.08;62.89
59873;BME280;50750;51.636;4.948;2023-03-26T04:22:22;100513.33;;;14.08;62.92
59873;BME280;50750;51.636;4.948;2023-03-26T04:24:49;100509.99;;;14.07;62.75
59873;BME280;50750;51.636;4.948;2023-03-26T04:27:23;100503.17;;;14.06;62.92
59873;BME280;50750;51.636;4.948;2023-03-26T04:29:52;100502.66;;;14.06;62.89
59873;BME280;50750;51.636;4.948;2023-03-26T04:32:27;100498.83;;;14.05;62.93
59873;BME280;50750;51.636;4.948;2023-03-26T04:35:00;100497.28;;;14.04;62.85
59873;BME280;50750;51.636;4.948;2023-03-26T04:37:31;100492.88;;;14.04;62.84
59873;BME280;50750;51.636;4.948;2023-03-26T04:40:00;100490.47;;;14.04;62.80
59873;BME280;50750;51.636;4.948;2023-03-26T04:42:31;100488.52;;;14.04;63.04
59873;BME280;50750;51.636;4.948;2023-03-26T04:44:58;100486.08;;;14.03;62.95
59873;BME280;50750;51.636;4.948;2023-03-26T04:47:28;100483.23;;;14.04;62.99
59873;BME280;50750;51.636;4.948;2023-03-26T04:49:54;100478.83;;;14.04;63.02
59873;BME280;50750;51.636;4.948;2023-03-26T04:52:21;100473.00;;;14.04;63.01
59873;BME280;50750;51.636;4.948;2023-03-26T04:54:48;100469.09;;;14.05;62.97
59873;BME280;50750;51.636;4.948;2023-03-26T04:57:19;100462.39;;;14.05;63.04
59873;BME280;50750;51.636;4.948;2023-03-26T04:59:46;100459.73;;;14.06;62.84
59873;BME280;50750;51.636;4.948;2023-03-26T05:02:13;100457.27;;;14.06;63.01
59873;BME280;50750;51.636;4.948;2023-03-26T05:04:40;100447.08;;;14.05;62.99
59873;BME280;50750;51.636;4.948;2023-03-26T05:07:09;100442.31;;;14.05;63.01
59873;BME280;50750;51.636;4.948;2023-03-26T05:09:36;100440.58;;;14.05;62.86
59873;BME280;50750;51.636;4.948;2023-03-26T05:12:03;100439.55;;;14.04;62.77
59873;BME280;50750;51.636;4.948;2023-03-26T05:14:29;100436.40;;;14.04;62.93
59873;BME280;50750;51.636;4.948;2023-03-26T05:16:56;100434.65;;;14.04;62.98
59873;BME280;50750;51.636;4.948;2023-03-26T05:19:23;100432.02;;;14.03;62.96
59873;BME280;50750;51.636;4.948;2023-03-26T05:21:49;100430.14;;;14.02;63.03
59873;BME280;50750;51.636;4.948;2023-03-26T05:24:16;100427.17;;;14.02;62.92
59873;BME280;50750;51.636;4.948;2023-03-26T05:26:44;100422.82;;;14.01;62.94
59873;BME280;50750;51.636;4.948;2023-03-26T05:29:16;100416.52;;;14.01;63.01
59873;BME280;50750;51.636;4.948;2023-03-26T05:31:43;100413.16;;;14.01;63.11
59873;BME280;50750;51.636;4.948;2023-03-26T05:34:10;100411.19;;;14.02;63.13
59873;BME280;50750;51.636;4.948;2023-03-26T05:36:36;100407.13;;;14.01;63.06
59873;BME280;50750;51.636;4.948;2023-03-26T05:39:03;100404.27;;;14.02;63.10
59873;BME280;50750;51.636;4.948;2023-03-26T05:41:30;100397.21;;;14.03;63.04
59873;BME280;50750;51.636;4.948;2023-03-26T05:43:57;100391.54;;;14.03;63.09
59873;BME280;50750;51.636;4.948;2023-03-26T05:46:23;100389.23;;;14.04;63.17
59873;BME280;50750;51.636;4.948;2023-03-26T05:48:50;100389.59;;;14.04;63.25
59873;BME280;50750;51.636;4.948;2023-03-26T05:51:17;100386.27;;;14.03;63.03
59873;BME280;50750;51.636;4.948;2023-03-26T05:53:43;100383.26;;;14.03;62.99
59873;BME280;50750;51.636;4.948;2023-03-26T05:56:10;100384.52;;;14.03;62.92
59873;BME280;50750;51.636;4.948;2023-03-26T05:58:37;100382.77;;;14.03;62.97
59873;BME280;50750;51.636;4.948;2023-03-26T06:01:09;100386.30;;;14.02;63.12
59873;BME280;50750;51.636;4.948;2023-03-26T06:03:38;100385.81;;;14.02;63.03
59873;BME280;50750;51.636;4.948;2023-03-26T06:06:09;100385.30;;;14.01;63.04
59873;BME280;50750;51.636;4.948;2023-03-26T06:08:45;100382.53;;;14.01;63.07
59873;BME280;50750;51.636;4.948;2023-03-26T06:11:15;100379.38;;;14.00;63.06
59873;BME280;50750;51.636;4.948;2023-03-26T06:13:43;100376.42;;;14.00;63.07
59873;BME280;50750;51.636;4.948;2023-03-26T06:16:11;100372.42;;;13.99;63.11
59873;BME280;50750;51.636;4.948;2023-03-26T06:18:38;100371.91;;;13.99;63.22
59873;BME280;50750;51.636;4.948;2023-03-26T06:21:05;100371.73;;;13.99;63.06
59873;BME280;50750;51.636;4.948;2023-03-26T06:23:32;100367.30;;;13.99;63.16
59873;BME280;50750;51.636;4.948;2023-03-26T06:25:59;100367.80;;;14.00;63.12
59873;BME280;50750;51.636;4.948;2023-03-26T06:28:26;100363.55;;;14.00;63.04
59873;BME280;50750;51.636;4.948;2023-03-26T06:30:53;100361.43;;;14.01;63.03
59873;BME280;50750;51.636;4.948;2023-03-26T06:33:19;100358.73;;;14.01;63.01
59873;BME280;50750;51.636;4.948;2023-03-26T06:35:46;100355.20;;;14.01;63.10
59873;BME280;50750;51.636;4.948;2023-03-26T06:38:12;100355.04;;;14.01;63.04
59873;BME280;50750;51.636;4.948;2023-03-26T06:40:39;100355.17;;;14.02;62.94
59873;BME280;50750;51.636;4.948;2023-03-26T06:43:06;100354.67;;;14.01;63.07
59873;BME280;50750;51.636;4.948;2023-03-26T06:45:32;100351.57;;;14.01;62.95
59873;BME280;50750;51.636;4.948;2023-03-26T06:47:59;100352.43;;;14.01;63.02
59873;BME280;50750;51.636;4.948;2023-03-26T06:50:26;100353.68;;;14.00;63.17
59873;BME280;50750;51.636;4.948;2023-03-26T06:52:54;100351.95;;;14.00;63.14
59873;BME280;50750;51.636;4.948;2023-03-26T06:55:22;100353.02;;;13.99;62.98
59873;BME280;50750;51.636;4.948;2023-03-26T06:57:53;100349.17;;;13.99;63.06
59873;BME280;50750;51.636;4.948;2023-03-26T07:00:20;100353.26;;;13.98;63.10
59873;BME280;50750;51.636;4.948;2023-03-26T07:02:47;100349.59;;;13.98;63.09
59873;BME280;50750;51.636;4.948;2023-03-26T07:05:14;100355.23;;;13.98;63.28
59873;BME280;50750;51.636;4.948;2023-03-26T07:07:40;100350.84;;;13.98;63.21
59873;BME280;50750;51.636;4.948;2023-03-26T07:10:08;100348.70;;;13.98;63.24
59873;BME280;50750;51.636;4.948;2023-03-26T07:12:34;100352.21;;;13.98;63.19
59873;BME280;50750;51.636;4.948;2023-03-26T07:15:02;100346.73;;;13.98;63.23
59873;BME280;50750;51.636;4.948;2023-03-26T07:17:29;100347.77;;;13.99;63.16
59873;BME280;50750;51.636;4.948;2023-03-26T07:19:55;100344.08;;;13.99;62.98
59873;BME280;50750;51.636;4.948;2023-03-26T07:22:23;100340.91;;;13.99;63.15
59873;BME280;50750;51.636;4.948;2023-03-26T07:24:50;100337.90;;;13.99;63.13
59873;BME280;50750;51.636;4.948;2023-03-26T07:35:35;100337.92;;;13.99;62.97
59873;BME280;50750;51.636;4.948;2023-03-26T07:46:42;100328.89;;;13.96;63.20
59873;BME280;50750;51.636;4.948;2023-03-26T07:49:11;100331.19;;;13.96;63.15
59873;BME280;50750;51.636;4.948;2023-03-26T07:51:38;100327.84;;;13.96;63.24
59873;BME280;50750;51.636;4.948;2023-03-26T07:54:07;100326.06;;;13.97;63.20
59873;BME280;50750;51.636;4.948;2023-03-26T07:56:58;100324.46;;;13.97;63.31
59873;BME280;50750;51.636;4.948;2023-03-26T07:59:30;100324.44;;;13.98;63.28
59873;BME280;50750;51.636;4.948;2023-03-26T08:05:36;100321.59;;;13.98;63.17
59873;BME280;50750;51.636;4.948;2023-03-26T08:11:13;100322.64;;;13.98;63.15
59873;BME280;50750;51.636;4.948;2023-03-26T08:13:53;100318.38;;;13.99;63.01
59873;BME280;50750;51.636;4.948;2023-03-26T08:16:38;100318.77;;;13.98;63.11
59873;BME280;50750;51.636;4.948;2023-03-26T08:19:26;100319.14;;;13.98;63.26
59873;BME280;50750;51.636;4.948;2023-03-26T08:22:01;100316.15;;;13.98;63.14
59873;BME280;50750;51.636;4.948;2023-03-26T08:28:05;100316.02;;;13.97;63.20
59873;BME280;50750;51.636;4.948;2023-03-26T08:30:34;100315.70;;;13.96;63.22
59873;BME280;50750;51.636;4.948;2023-03-26T08:35:36;100315.02;;;13.96;63.20
59873;BME280;50750;51.636;4.948;2023-03-26T08:38:09;100315.52;;;13.96;63.27
59873;BME280;50750;51.636;4.948;2023-03-26T08:57:38;100315.77;;;13.98;63.20
59873;BME280;50750;51.636;4.948;2023-03-26T09:20:39;100315.23;;;13.92;63.30
59873;BME280;50750;51.636;4.948;2023-03-26T09:31:44;100315.70;;;13.93;63.33
59873;BME280;50750;51.636;4.948;2023-03-26T09:40:07;100316.83;;;13.95;63.40
59873;BME280;50750;51.636;4.948;2023-03-26T09:42:55;100319.80;;;13.96;63.52
59873;BME280;50750;51.636;4.948;2023-03-26T09:48:09;100323.48;;;13.96;63.45
59873;BME280;50750;51.636;4.948;2023-03-26T09:57:00;100322.30;;;13.95;63.40
59873;BME280;50750;51.636;4.948;2023-03-26T10:07:44;100328.05;;;13.92;63.43
59873;BME280;50750;51.636;4.948;2023-03-26T10:30:00;100330.62;;;13.93;63.43
59873;BME280;50750;51.636;4.948;2023-03-26T10:32:32;100334.47;;;13.94;63.55
59873;BME280;50750;51.636;4.948;2023-03-26T10:44:16;100336.40;;;13.94;63.54
59873;BME280;50750;51.636;4.948;2023-03-26T10:52:21;100342.66;;;13.92;63.53
59873;BME280;50750;51.636;4.948;2023-03-26T10:57:54;100343.96;;;13.91;63.63
59873;BME280;50750;51.636;4.948;2023-03-26T11:00:24;100351.86;;;13.91;63.63
59873;BME280;50750;51.636;4.948;2023-03-26T11:05:26;100354.84;;;13.91;63.40
59873;BME280;50750;51.636;4.948;2023-03-26T11:15:46;100364.70;;;13.95;63.45
59873;BME280;50750;51.636;4.948;2023-03-26T11:21:16;100369.04;;;13.96;63.39
59873;BME280;50750;51.636;4.948;2023-03-26T11:27:06;100376.39;;;13.97;63.57
59873;BME280;50750;51.636;4.948;2023-03-26T11:30:13;100379.58;;;13.97;63.53
59873;BME280;50750;51.636;4.948;2023-03-26T11:32:45;100379.06;;;13.96;63.57
59873;BME280;50750;51.636;4.948;2023-03-26T11:38:07;100385.23;;;13.96;63.48
59873;BME280;50750;51.636;4.948;2023-03-26T11:40:41;100385.10;;;13.95;63.62
59873;BME280;50750;51.636;4.948;2023-03-26T11:43:12;100388.11;;;13.95;63.56
59873;BME280;50750;51.636;4.948;2023-03-26T11:45:43;100390.08;;;13.95;63.58
59873;BME280;50750;51.636;4.948;2023-03-26T11:48:31;100393.41;;;13.94;63.66
59873;BME280;50750;51.636;4.948;2023-03-26T11:51:04;100395.71;;;13.94;63.56
59873;BME280;50750;51.636;4.948;2023-03-26T11:53:34;100395.17;;;13.94;63.48
59873;BME280;50750;51.636;4.948;2023-03-26T11:56:11;100400.76;;;13.95;63.54
59873;BME280;50750;51.636;4.948;2023-03-26T12:01:25;100404.22;;;13.97;63.44
59873;BME280;50750;51.636;4.948;2023-03-26T12:04:09;100405.77;;;13.98;63.63
59873;BME280;50750;51.636;4.948;2023-03-26T12:06:50;100407.67;;;13.98;63.60
59873;BME280;50750;51.636;4.948;2023-03-26T12:09:18;100409.40;;;13.98;63.53
59873;BME280;50750;51.636;4.948;2023-03-26T12:11:46;100410.08;;;13.99;63.55
59873;BME280;50750;51.636;4.948;2023-03-26T12:14:17;100411.48;;;14.00;63.57
59873;BME280;50750;51.636;4.948;2023-03-26T12:17:04;100405.48;;;13.99;63.62
59873;BME280;50750;51.636;4.948;2023-03-26T12:19:38;100410.24;;;13.99;63.45
59873;BME280;50750;51.636;4.948;2023-03-26T12:22:31;100414.82;;;13.99;63.45
59873;BME280;50750;51.636;4.948;2023-03-26T12:25:21;100418.19;;;13.99;63.58
59873;BME280;50750;51.636;4.948;2023-03-26T12:30:39;100422.05;;;13.99;63.73
59873;BME280;50750;51.636;4.948;2023-03-26T12:33:16;100418.75;;;13.98;63.56
59873;BME280;50750;51.636;4.948;2023-03-26T12:35:44;100420.53;;;13.98;63.72
59873;BME280;50750;51.636;4.948;2023-03-26T12:38:28;100423.39;;;13.97;63.68
59873;BME280;50750;51.636;4.948;2023-03-26T12:41:10;100428.27;;;13.98;63.66
59873;BME280;50750;51.636;4.948;2023-03-26T12:43:49;100427.34;;;13.99;63.73
59873;BME280;50750;51.636;4.948;2023-03-26T12:46:23;100432.76;;;14.00;63.53
59873;BME280;50750;51.636;4.948;2023-03-26T12:48:52;100434.86;;;14.00;63.86
59873;BME280;50750;51.636;4.948;2023-03-26T12:51:35;100438.64;;;14.01;63.71
59873;BME280;50750;51.636;4.948;2023-03-26T12:57:16;100439.85;;;14.02;63.68
59873;BME280;50750;51.636;4.948;2023-03-26T13:00:03;100443.38;;;14.02;63.54
59873;BME280;50750;51.636;4.948;2023-03-26T13:05:27;100451.09;;;14.02;63.76
59873;BME280;50750;51.636;4.948;2023-03-26T13:10:39;100458.71;;;14.01;63.56
59873;BME280;50750;51.636;4.948;2023-03-26T13:16:06;100463.71;;;14.00;63.74
59873;BME280;50750;51.636;4.948;2023-03-26T13:24:18;100470.79;;;13.99;63.80
59873;BME280;50750;51.636;4.948;2023-03-26T13:29:35;100480.60;;;14.01;63.90
59873;BME280;50750;51.636;4.948;2023-03-26T13:35:11;100486.30;;;14.02;63.78
59873;BME280;50750;51.636;4.948;2023-03-26T13:40:41;100494.91;;;14.03;63.62
59873;BME280;50750;51.636;4.948;2023-03-26T13:48:27;100508.13;;;14.02;63.71
59873;BME280;50750;51.636;4.948;2023-03-26T13:51:01;100514.65;;;14.02;63.71
59873;BME280;50750;51.636;4.948;2023-03-26T13:53:37;100515.88;;;14.02;63.74
59873;BME280;50750;51.636;4.948;2023-03-26T13:56:07;100521.17;;;14.02;63.65
59873;BME280;50750;51.636;4.948;2023-03-26T13:58:42;100523.35;;;14.01;63.80
59873;BME280;50750;51.636;4.948;2023-03-26T14:01:13;100530.06;;;14.01;63.90
59873;BME280;50750;51.636;4.948;2023-03-26T14:09:30;100542.11;;;13.99;63.72
59873;BME280;50750;51.636;4.948;2023-03-26T14:14:51;100550.02;;;14.00;63.63
59873;BME280;50750;51.636;4.948;2023-03-26T14:31:30;100561.82;;;14.02;63.47
59873;BME280;50750;51.636;4.948;2023-03-26T14:37:22;100568.52;;;14.02;63.55
59873;BME280;50750;51.636;4.948;2023-03-26T14:48:37;100584.33;;;14.00;63.83
59873;BME280;50750;51.636;4.948;2023-03-26T14:54:01;100595.14;;;13.98;63.62
59873;BME280;50750;51.636;4.948;2023-03-26T14:56:58;100601.49;;;13.98;63.54
59873;BME280;50750;51.636;4.948;2023-03-26T15:26:11;100657.60;;;13.99;63.44
59873;BME280;50750;51.636;4.948;2023-03-26T15:38:05;100682.21;;;13.96;63.27
59873;BME280;50750;51.636;4.948;2023-03-26T15:43:11;100694.03;;;13.96;63.30
59873;BME280;50750;51.636;4.948;2023-03-26T15:48:15;100702.30;;;13.96;63.26
59873;BME280;50750;51.636;4.948;2023-03-26T15:53:49;100708.90;;;13.97;63.19
59873;BME280;50750;51.636;4.948;2023-03-26T16:04:47;100732.57;;;14.03;63.11
59873;BME280;50750;51.636;4.948;2023-03-26T16:15:55;100762.61;;;14.04;62.73
59873;BME280;50750;51.636;4.948;2023-03-26T16:18:34;100768.45;;;14.04;62.79
59873;BME280;50750;51.636;4.948;2023-03-26T16:21:31;100777.13;;;14.03;62.77
59873;BME280;50750;51.636;4.948;2023-03-26T16:35:37;100808.00;;;13.98;62.67
59873;BME280;50750;51.636;4.948;2023-03-26T16:37:40;100814.41;;;13.96;62.59
59873;BME280;50750;51.636;4.948;2023-03-26T16:48:28;100833.29;;;13.95;62.61
59873;BME280;50750;51.636;4.948;2023-03-26T16:51:10;100842.08;;;13.95;62.63
59873;BME280;50750;51.636;4.948;2023-03-26T16:53:56;100846.98;;;13.96;62.55
59873;BME280;50750;51.636;4.948;2023-03-26T16:59:06;100860.35;;;13.96;62.55
59873;BME280;50750;51.636;4.948;2023-03-26T17:01:45;100869.31;;;13.96;62.42
59873;BME280;50750;51.636;4.948;2023-03-26T17:04:15;100879.88;;;13.96;62.36
59873;BME280;50750;51.636;4.948;2023-03-26T17:07:02;100884.83;;;13.96;62.46
59873;BME280;50750;51.636;4.948;2023-03-26T17:10:21;100893.11;;;13.96;62.40
59873;BME280;50750;51.636;4.948;2023-03-26T17:13:06;100906.16;;;13.95;62.36
59873;BME280;50750;51.636;4.948;2023-03-26T17:15:51;100911.65;;;13.94;62.27
59873;BME280;50750;51.636;4.948;2023-03-26T17:21:03;100922.45;;;13.92;62.48
59873;BME280;50750;51.636;4.948;2023-03-26T17:44:54;100978.56;;;13.85;62.06
59873;BME280;50750;51.636;4.948;2023-03-26T17:50:05;100988.30;;;13.84;61.97
59873;BME280;50750;51.636;4.948;2023-03-26T17:55:20;101004.55;;;13.83;62.13
59873;BME280;50750;51.636;4.948;2023-03-26T17:57:51;101009.29;;;13.83;62.00
59873;BME280;50750;51.636;4.948;2023-03-26T18:00:22;101015.96;;;13.84;61.89
59873;BME280;50750;51.636;4.948;2023-03-26T18:03:01;101022.59;;;13.85;61.95
59873;BME280;50750;51.636;4.948;2023-03-26T18:05:32;101025.75;;;13.85;61.87
59873;BME280;50750;51.636;4.948;2023-03-26T18:08:18;101037.70;;;13.86;61.71
59873;BME280;50750;51.636;4.948;2023-03-26T18:16:18;101055.52;;;13.85;60.26
59873;BME280;50750;51.636;4.948;2023-03-26T18:18:50;101065.54;;;13.85;60.46
59873;BME280;50750;51.636;4.948;2023-03-26T18:21:33;101067.34;;;13.84;60.39
59873;BME280;50750;51.636;4.948;2023-03-26T18:24:02;101071.02;;;13.84;60.44
59873;BME280;50750;51.636;4.948;2023-03-26T18:26:36;101073.30;;;13.84;60.39
59873;BME280;50750;51.636;4.948;2023-03-26T18:29:20;101084.55;;;13.85;60.31
59873;BME280;50750;51.636;4.948;2023-03-26T18:32:15;101087.90;;;13.85;60.44
59873;BME280;50750;51.636;4.948;2023-03-26T18:34:54;101095.29;;;13.85;60.26
59873;BME280;50750;51.636;4.948;2023-03-26T18:37:29;101100.91;;;13.85;60.34
59873;BME280;50750;51.636;4.948;2023-03-26T18:40:02;101107.61;;;13.85;60.44
59873;BME280;50750;51.636;4.948;2023-03-26T18:42:39;101116.61;;;13.84;60.53
59873;BME280;50750;51.636;4.948;2023-03-26T18:45:11;101125.57;;;13.85;60.37
59873;BME280;50750;51.636;4.948;2023-03-26T18:47:42;101130.65;;;13.85;60.35
59873;BME280;50750;51.636;4.948;2023-03-26T18:50:15;101136.81;;;13.85;60.40
59873;BME280;50750;51.636;4.948;2023-03-26T18:52:43;101142.09;;;13.85;60.40
59873;BME280;50750;51.636;4.948;2023-03-26T18:55:12;101148.42;;;13.85;60.33
59873;BME280;50750;51.636;4.948;2023-03-26T18:57:41;101151.23;;;13.86;60.46
59873;BME280;50750;51.636;4.948;2023-03-26T19:00:18;101154.39;;;13.86;60.32
59873;BME280;50750;51.636;4.948;2023-03-26T19:02:47;101159.30;;;13.86;60.47
59873;BME280;50750;51.636;4.948;2023-03-26T19:05:17;101164.07;;;13.86;60.46
59873;BME280;50750;51.636;4.948;2023-03-26T19:07:46;101169.91;;;13.85;60.56
59873;BME280;50750;51.636;4.948;2023-03-26T19:10:15;101174.15;;;13.85;60.31
59873;BME280;50750;51.636;4.948;2023-03-26T19:12:55;101182.99;;;13.83;60.33
59873;BME280;50750;51.636;4.948;2023-03-26T19:15:24;101186.23;;;13.82;60.58
59873;BME280;50750;51.636;4.948;2023-03-26T19:17:55;101185.37;;;13.81;60.31
59873;BME280;50750;51.636;4.948;2023-03-26T19:20:27;101191.39;;;13.80;60.38